createdAt,value
2023-03-26T00:03:21.364Z,32.01
2023-03-26T00:07:21.478Z,32.03
2023-03-26T00:11:21.603Z,32.01
2023-03-26T00:15:21.743Z,32.01
2023-03-26T00:19:21.854Z,32.01
2023-03-26T00:23:21.970Z,32.00
2023-03-26T00:27:22.074Z,31.97
2023-03-26T00:31:22.270Z,31.96
2023-03-26T00:35:22.333Z,31.95
2023-03-26T00:39:22.390Z,31.92
2023-03-26T00:43:22.517Z,31.94
2023-03-26T00:47:22.610Z,31.91
2023-03-26T00:51:22.703Z,31.91
2023-03-26T00:55:22.811Z,31.89
2023-03-26T00:59:22.906Z,31.87
2023-03-26T01:03:27.472Z,31.87
2023-03-26T01:07:22.930Z,31.87
2023-03-26T01:11:22.893Z,31.87
2023-03-26T01:15:22.868Z,31.86
2023-03-26T01:19:22.898Z,31.86
2023-03-26T01:23:22.809Z,31.86
2023-03-26T01:27:22.919Z,31.83
2023-03-26T01:31:23.023Z,31.84
2023-03-26T01:35:23.201Z,31.86
2023-03-26T01:39:23.220Z,31.81
2023-03-26T01:43:23.342Z,31.80
2023-03-26T01:47:23.496Z,31.79
2023-03-26T01:51:23.552Z,31.78
2023-03-26T01:55:23.520Z,31.77
2023-03-26T01:59:23.536Z,31.76
2023-03-26T02:03:23.711Z,31.75
2023-03-26T02:07:23.521Z,31.73
2023-03-26T02:11:23.516Z,31.71
2023-03-26T02:15:23.495Z,31.71
2023-03-26T02:19:23.640Z,31.69
2023-03-26T02:23:23.449Z,31.69
2023-03-26T02:27:23.427Z,31.69
2023-03-26T02:31:23.425Z,31.69
2023-03-26T02:35:23.569Z,31.69
2023-03-26T02:39:23.405Z,31.69
2023-03-26T02:43:23.494Z,31.69
2023-03-26T02:47:23.420Z,31.69
2023-03-26T02:51:23.540Z,31.68
2023-03-26T02:55:23.675Z,31.68
2023-03-26T02:59:23.762Z,31.66
2023-03-26T03:03:23.917Z,31.66
2023-03-26T03:07:23.977Z,31.67
2023-03-26T03:11:24.081Z,31.66
2023-03-26T03:15:24.192Z,31.65
2023-03-26T03:19:24.290Z,31.64
2023-03-26T03:23:24.403Z,31.63
2023-03-26T03:27:24.496Z,31.63
2023-03-26T03:31:24.694Z,31.61
2023-03-26T03:35:24.766Z,31.59
2023-03-26T03:39:24.815Z,31.60
2023-03-26T03:43:24.923Z,31.61
2023-03-26T03:47:25.066Z,31.59
2023-03-26T03:51:25.138Z,31.57
2023-03-26T03:55:25.235Z,31.56
2023-03-26T03:59:25.340Z,31.57
2023-03-26T04:03:33.004Z,31.55
2023-03-26T04:07:26.416Z,31.49
2023-03-26T04:11:25.407Z,31.53
2023-03-26T04:15:25.337Z,31.49
2023-03-26T04:19:25.293Z,31.49
2023-03-26T04:23:25.366Z,31.46
2023-03-26T04:27:25.499Z,31.44
2023-03-26T04:31:25.616Z,31.44
2023-03-26T04:35:25.762Z,31.42
2023-03-26T04:39:25.811Z,31.43
2023-03-26T04:43:25.929Z,31.40
2023-03-26T04:47:26.088Z,31.38
2023-03-26T04:51:26.149Z,31.37
2023-03-26T04:55:26.256Z,31.37
2023-03-26T04:59:26.376Z,31.36
2023-03-26T05:03:26.492Z,31.34
2023-03-26T05:07:26.619Z,31.34
2023-03-26T05:11:26.736Z,31.35
2023-03-26T05:15:26.829Z,31.35
2023-03-26T05:19:26.965Z,31.37
2023-03-26T05:23:27.081Z,31.38
2023-03-26T05:27:27.206Z,31.35
2023-03-26T05:31:27.304Z,31.36
2023-03-26T05:35:27.550Z,31.34
2023-03-26T05:39:27.571Z,31.33
2023-03-26T05:43:27.703Z,31.33
2023-03-26T05:47:27.874Z,31.33
2023-03-26T05:51:27.961Z,31.29
2023-03-26T05:55:28.080Z,31.29
2023-03-26T05:59:28.202Z,31.27
2023-03-26T06:03:28.366Z,31.26
2023-03-26T06:07:28.421Z,31.23
2023-03-26T06:11:28.542Z,31.25
2023-03-26T06:15:28.647Z,31.27
2023-03-26T06:19:28.757Z,31.24
2023-03-26T06:23:28.860Z,31.23
2023-03-26T06:27:28.951Z,31.22
2023-03-26T06:31:29.148Z,31.24
2023-03-26T06:35:29.172Z,31.23
2023-03-26T06:39:29.289Z,31.24
2023-03-26T06:43:29.400Z,31.22
2023-03-26T06:47:29.531Z,31.22
2023-03-26T06:51:29.575Z,31.20
2023-03-26T06:55:29.696Z,31.20
2023-03-26T06:59:29.772Z,31.16
2023-03-26T07:03:29.858Z,31.16
2023-03-26T07:07:29.945Z,31.18
2023-03-26T07:11:30.431Z,31.18
2023-03-26T07:15:30.164Z,31.20
2023-03-26T07:19:30.277Z,31.19
2023-03-26T07:23:30.397Z,31.20
2023-03-26T07:27:30.512Z,31.20
2023-03-26T07:31:30.638Z,31.20
2023-03-26T07:35:30.822Z,31.23
2023-03-26T07:39:30.844Z,31.19
2023-03-26T07:43:30.954Z,31.21
2023-03-26T07:47:31.090Z,31.19
2023-03-26T07:51:31.166Z,31.12
2023-03-26T07:55:31.260Z,31.10
2023-03-26T07:59:31.353Z,31.05
2023-03-26T08:03:31.602Z,31.04
2023-03-26T08:07:31.524Z,31.03
2023-03-26T08:11:31.588Z,31.04
2023-03-26T08:15:31.673Z,31.05
2023-03-26T08:19:31.722Z,31.02
2023-03-26T08:23:31.800Z,31.00
2023-03-26T08:27:31.861Z,30.99
2023-03-26T08:31:31.971Z,31.00
2023-03-26T08:35:32.041Z,31.01
2023-03-26T08:39:32.089Z,30.99
2023-03-26T08:43:32.158Z,31.01
2023-03-26T08:47:32.233Z,31.05
2023-03-26T08:51:32.298Z,31.05
2023-03-26T08:55:32.370Z,31.06
2023-03-26T08:59:32.450Z,31.08
2023-03-26T09:03:32.546Z,31.09
2023-03-26T09:07:32.612Z,31.09
2023-03-26T09:11:32.713Z,31.07
2023-03-26T09:15:32.809Z,31.06
2023-03-26T09:19:32.872Z,31.07
2023-03-26T09:23:32.953Z,31.07
2023-03-26T09:27:33.047Z,31.05
2023-03-26T09:31:33.174Z,31.05
2023-03-26T09:35:33.273Z,31.03
2023-03-26T09:39:33.278Z,31.04
2023-03-26T09:43:33.353Z,31.05
2023-03-26T09:47:33.501Z,31.06
2023-03-26T09:51:33.521Z,31.05
2023-03-26T09:55:33.619Z,31.06
2023-03-26T09:59:33.687Z,31.06
2023-03-26T10:03:33.827Z,31.08
2023-03-26T10:07:33.853Z,31.08
2023-03-26T10:11:33.935Z,31.09
2023-03-26T10:15:34.011Z,31.09
2023-03-26T10:19:34.083Z,31.09
2023-03-26T10:23:34.166Z,31.10
2023-03-26T10:27:34.242Z,31.10
2023-03-26T10:31:34.320Z,31.09
2023-03-26T10:35:34.416Z,31.10
2023-03-26T10:39:38.202Z,31.10
2023-03-26T10:43:35.422Z,31.08
2023-03-26T10:47:34.398Z,31.10
2023-03-26T10:51:34.300Z,31.10
2023-03-26T10:55:34.242Z,31.06
2023-03-26T10:59:34.221Z,31.10
2023-03-26T11:03:34.315Z,31.09
2023-03-26T11:07:34.411Z,31.13
2023-03-26T11:11:34.496Z,31.14
2023-03-26T11:15:34.569Z,31.11
2023-03-26T11:19:34.615Z,31.15
2023-03-26T11:23:34.687Z,31.16
2023-03-26T11:27:34.745Z,31.15
2023-03-26T11:31:34.854Z,31.14
2023-03-26T11:35:40.420Z,31.20
2023-03-26T11:39:35.796Z,31.17
2023-03-26T11:43:34.744Z,31.20
2023-03-26T11:47:34.757Z,31.20
2023-03-26T11:51:34.618Z,31.19
2023-03-26T11:55:34.603Z,31.19
2023-03-26T11:59:41.965Z,31.20
2023-03-26T12:03:35.607Z,31.20
2023-03-26T12:07:34.532Z,31.22
2023-03-26T12:11:35.401Z,31.21
2023-03-26T12:15:34.426Z,31.22
2023-03-26T12:19:34.353Z,31.23
2023-03-26T12:23:34.277Z,31.24
2023-03-26T12:27:34.287Z,31.22
2023-03-26T12:31:34.296Z,31.27
2023-03-26T12:35:34.305Z,31.26
2023-03-26T12:40:08.111Z,31.26
2023-03-26T12:44:53.234Z,31.29
2023-03-26T12:48:00.848Z,31.30
2023-03-26T12:51:34.989Z,31.29
2023-03-26T12:55:33.908Z,31.29
2023-03-26T12:59:33.816Z,31.28
2023-03-26T13:03:33.765Z,31.29
2023-03-26T13:07:33.636Z,31.32
2023-03-26T13:11:33.563Z,31.30
2023-03-26T13:15:33.497Z,31.33
2023-03-26T13:19:33.410Z,31.32
2023-03-26T13:23:33.324Z,31.33
2023-03-26T13:27:33.239Z,31.33
2023-03-26T13:31:33.183Z,31.32
2023-03-26T13:35:33.173Z,31.31
2023-03-26T13:39:33.054Z,31.34
2023-03-26T13:43:32.984Z,31.31
2023-03-26T13:47:32.927Z,31.32
2023-03-26T13:51:32.849Z,31.33
2023-03-26T13:55:32.809Z,31.33
2023-03-26T13:59:32.761Z,31.31
2023-03-26T14:03:32.770Z,31.32
2023-03-26T14:07:32.672Z,31.33
2023-03-26T14:11:33.084Z,31.33
2023-03-26T14:15:32.546Z,31.32
2023-03-26T14:19:32.464Z,31.32
2023-03-26T14:23:32.387Z,31.33
2023-03-26T14:27:32.327Z,31.32
2023-03-26T14:31:32.628Z,31.34
2023-03-26T14:35:32.199Z,31.35
2023-03-26T14:39:32.055Z,31.36
2023-03-26T14:43:31.995Z,31.34
2023-03-26T14:47:32.004Z,31.34
2023-03-26T14:51:31.904Z,31.37
2023-03-26T14:55:32.577Z,31.38
2023-03-26T14:59:31.807Z,31.37
2023-03-26T15:03:31.828Z,31.42
2023-03-26T15:07:31.725Z,31.39
2023-03-26T15:11:31.673Z,31.38
2023-03-26T15:15:31.636Z,31.38
2023-03-26T15:19:31.588Z,31.40
2023-03-26T15:23:31.539Z,31.41
2023-03-26T15:27:31.503Z,31.40
2023-03-26T15:31:31.458Z,31.41
2023-03-26T15:35:31.377Z,31.42
2023-03-26T15:39:31.321Z,31.42
2023-03-26T15:43:31.279Z,31.43
2023-03-26T15:47:31.263Z,31.41
2023-03-26T15:51:31.193Z,31.42
2023-03-26T15:55:31.176Z,31.41
2023-03-26T15:59:31.145Z,31.41
2023-03-26T16:03:31.044Z,31.39
2023-03-26T16:07:31.007Z,31.39
2023-03-26T16:11:30.956Z,31.43
2023-03-26T16:15:30.970Z,31.41
2023-03-26T16:19:30.857Z,31.39
2023-03-26T16:23:30.825Z,31.40
2023-03-26T16:27:30.787Z,31.40
2023-03-26T16:31:38.178Z,31.43
2023-03-26T16:35:31.900Z,31.43
2023-03-26T16:39:30.614Z,31.43
2023-03-26T16:43:30.529Z,31.42
2023-03-26T16:47:30.504Z,31.43
2023-03-26T16:51:30.417Z,31.43
2023-03-26T16:55:30.354Z,31.43
2023-03-26T16:59:30.287Z,31.43
2023-03-26T17:03:30.341Z,31.46
2023-03-26T17:07:30.166Z,31.45
2023-03-26T17:11:30.119Z,31.44
2023-03-26T17:15:30.064Z,31.45
2023-03-26T17:19:29.996Z,31.44
2023-03-26T17:23:29.936Z,31.45
2023-03-26T17:27:29.897Z,31.47
2023-03-26T17:31:29.839Z,31.44
2023-03-26T17:35:29.764Z,31.46
2023-03-26T17:39:29.732Z,31.47
2023-03-26T17:43:29.763Z,31.48
2023-03-26T17:47:29.745Z,31.47
2023-03-26T17:51:29.698Z,31.49
2023-03-26T17:55:29.674Z,31.48
2023-03-26T17:59:29.669Z,31.51
2023-03-26T18:03:31.026Z,31.49
2023-03-26T18:07:29.663Z,31.48
2023-03-26T18:11:29.663Z,31.50
2023-03-26T18:15:29.774Z,31.51
2023-03-26T18:19:29.619Z,31.51
2023-03-26T18:23:29.614Z,31.51
2023-03-26T18:27:29.604Z,31.51
2023-03-26T18:31:29.599Z,31.53
2023-03-26T18:35:29.612Z,31.51
2023-03-26T18:39:29.539Z,31.52
2023-03-26T18:43:34.840Z,31.51
2023-03-26T18:47:30.508Z,31.53
2023-03-26T18:51:31.699Z,31.52
2023-03-26T18:55:29.378Z,31.53
2023-03-26T18:59:29.369Z,31.53
2023-03-26T19:03:29.431Z,31.56
2023-03-26T19:07:29.318Z,31.59
2023-03-26T19:11:29.298Z,31.57
2023-03-26T19:15:29.282Z,31.57
2023-03-26T19:19:29.266Z,31.56
2023-03-26T19:23:29.252Z,31.54
2023-03-26T19:51:29.063Z,31.53
